Time;durP1;ratioP1;P1;durP2;ratioP2;P2;SDS_P1;SDS_P2;PMS_P1;PMS_P2;Temp;Humidity;BMP_temperature;BMP_pressure;BME280_temperature;BME280_humidity;BME280_pressure;Samples;Min_cycle;Max_cycle;Signal;HPM_P1;HPM_P2
2023/02/12 00:00:43;;;;;;;35.40;15.70;;;;;;;18.25;73.78;103705.25;5100301;28;20055;-55
2023/02/12 00:03:09;;;;;;;39.87;16.07;;;;;;;18.35;73.58;103700.44;5096812;28;20028;-52
2023/02/12 00:05:40;;;;;;;29.48;15.20;;;;;;;18.42;73.64;103698.72;5101510;28;20288;-52
2023/02/12 00:08:06;;;;;;;34.00;15.80;;;;;;;18.36;73.49;103699.44;5095974;28;20033;-50
2023/02/12 00:10:31;;;;;;;35.72;17.55;;;;;;;18.32;73.89;103696.22;5100031;28;20281;-54
2023/02/12 00:12:57;;;;;;;28.88;15.00;;;;;;;18.41;73.27;103698.91;5101100;28;20036;-52
2023/02/12 00:15:22;;;;;;;32.97;15.90;;;;;;;18.37;73.24;103695.69;5094995;28;20032;-52
2023/02/12 00:17:47;;;;;;;34.10;15.27;;;;;;;17.87;74.37;103697.75;5093929;28;20040;-54
2023/02/12 00:20:13;;;;;;;32.80;15.93;;;;;;;18.24;73.51;103695.44;5098141;28;20036;-52
2023/02/12 00:22:39;;;;;;;31.90;14.93;;;;;;;17.84;74.76;103698.97;5094981;28;20037;-49
2023/02/12 00:25:04;;;;;;;34.97;15.63;;;;;;;18.37;74.12;103697.56;5092839;28;20067;-54
2023/02/12 00:27:34;;;;;;;33.10;15.13;;;;;;;17.89;74.24;103703.84;5092422;28;20033;-53
2023/02/12 00:29:59;;;;;;;33.43;15.53;;;;;;;18.30;72.52;103708.28;5074805;28;20066;-52
2023/02/12 00:32:25;;;;;;;29.23;15.43;;;;;;;18.37;72.70;103700.28;5099996;28;20285;-56
2023/02/12 00:34:51;;;;;;;28.13;13.98;;;;;;;18.00;73.40;103703.47;5096536;28;20040;-52
2023/02/12 00:37:16;;;;;;;29.27;15.57;;;;;;;17.94;73.37;103709.59;5098026;28;20040;-52
2023/02/12 00:39:42;;;;;;;33.13;14.93;;;;;;;17.87;73.96;103706.72;5097281;28;20036;-53
2023/02/12 00:42:09;;;;;;;22.80;12.97;;;;;;;17.93;73.72;103697.06;5106190;28;20267;-53
2023/02/12 00:44:35;;;;;;;25.17;13.70;;;;;;;18.53;71.81;103704.75;5098900;28;20276;-53
2023/02/12 00:47:02;;;;;;;26.40;13.93;;;;;;;18.26;72.53;103702.34;5099256;28;20297;-52
2023/02/12 00:49:32;;;;;;;30.07;15.47;;;;;;;18.36;72.51;103704.84;5101572;28;20299;-51
2023/02/12 00:52:01;;;;;;;25.70;14.97;;;;;;;18.34;72.52;103699.63;5096594;28;20032;-53
2023/02/12 00:54:28;;;;;;;29.80;13.57;;;;;;;18.44;72.53;103698.53;5082698;28;20319;-49
2023/02/12 00:56:57;;;;;;;28.53;14.23;;;;;;;18.44;72.51;103702.06;5105492;28;20289;-54
2023/02/12 00:59:23;;;;;;;28.00;14.07;;;;;;;18.41;72.32;103709.75;5094322;28;20273;-50
2023/02/12 01:01:50;;;;;;;28.50;13.73;;;;;;;18.28;71.97;103705.72;5093888;28;20285;-53
2023/02/12 01:04:17;;;;;;;28.87;14.67;;;;;;;18.30;72.38;103702.84;5094650;28;20325;-52
2023/02/12 01:06:43;;;;;;;41.88;19.80;;;;;;;18.29;72.17;103693.88;5078879;28;20277;-54
2023/02/12 01:09:08;;;;;;;28.80;15.23;;;;;;;18.11;71.91;103694.13;5094393;28;20032;-50
2023/02/12 01:11:34;;;;;;;36.50;16.37;;;;;;;18.28;72.19;103704.91;5095081;28;20112;-52
2023/02/12 01:13:59;;;;;;;29.95;15.20;;;;;;;18.28;72.19;103694.06;5098784;28;20028;-51
2023/02/12 01:16:26;;;;;;;33.73;14.77;;;;;;;18.34;72.06;103696.06;5102143;28;20040;-54
2023/02/12 01:18:54;;;;;;;32.33;15.47;;;;;;;18.40;72.05;103706.16;5094802;28;20261;-50
2023/02/12 01:21:25;;;;;;;29.40;14.90;;;;;;;18.28;72.58;103702.19;5100126;28;20273;-52
2023/02/12 01:23:50;;;;;;;30.40;15.07;;;;;;;18.28;72.77;103697.59;5082709;28;20319;-52
2023/02/12 01:26:17;;;;;;;29.50;15.52;;;;;;;18.05;73.13;103698.38;5095943;28;20261;-55
2023/02/12 01:28:47;;;;;;;35.23;16.67;;;;;;;18.08;73.13;103697.22;5096197;28;20024;-53
2023/02/12 01:31:20;;;;;;;28.73;14.90;;;;;;;17.99;73.49;103684.66;5097760;28;20261;-52
2023/02/12 01:33:47;;;;;;;27.47;13.37;;;;;;;18.25;72.88;103684.41;5092743;28;20340;-53
2023/02/12 01:36:14;;;;;;;31.07;13.10;;;;;;;18.24;73.01;103692.75;5101585;28;20276;-50
2023/02/12 01:38:40;;;;;;;31.45;14.70;;;;;;;17.96;73.02;103685.88;5097511;28;20281;-51
2023/02/12 01:41:12;;;;;;;27.70;14.33;;;;;;;17.97;73.24;103689.41;5081348;28;20029;-53
2023/02/12 01:43:38;;;;;;;31.73;14.80;;;;;;;18.05;72.93;103695.69;5101709;28;20286;-51
2023/02/12 01:46:05;;;;;;;29.02;14.98;;;;;;;18.04;73.24;103683.16;5081181;28;20277;-53
2023/02/12 01:48:34;;;;;;;29.43;14.00;;;;;;;17.90;73.33;103692.00;5078103;28;20052;-50
2023/02/12 01:51:02;;;;;;;26.33;14.73;;;;;;;17.97;72.94;103684.00;5095122;28;20283;-53
2023/02/12 01:53:36;;;;;;;32.30;14.97;;;;;;;17.89;73.16;103691.16;5094764;28;20269;-53
2023/02/12 01:56:02;;;;;;;27.93;14.83;;;;;;;17.75;73.63;103694.56;5095719;28;20297;-55
2023/02/12 01:58:34;;;;;;;29.10;15.07;;;;;;;17.74;73.45;103703.72;5113679;28;20352;-54
2023/02/12 02:01:02;;;;;;;28.97;14.30;;;;;;;17.76;73.43;103693.56;5094481;28;20037;-55
2023/02/12 02:03:30;;;;;;;31.03;15.00;;;;;;;17.64;73.96;103701.19;5075324;28;20295;-49
2023/02/12 02:06:07;;;;;;;26.23;14.48;;;;;;;17.46;74.26;103693.31;5093000;28;20272;-53
2023/02/12 02:08:33;;;;;;;31.00;13.85;;;;;;;17.39;74.92;103692.31;5088561;28;20033;-55
2023/02/12 02:10:58;;;;;;;27.73;15.20;;;;;;;17.56;74.55;103687.69;5081296;28;20044;-50
2023/02/12 02:16:24;;;;;;;29.20;14.90;;;;;;;17.63;73.96;103697.66;5091926;28;20036;-49
2023/02/12 02:19:06;;;;;;;28.67;14.70;;;;;;;17.59;74.13;103696.31;5076462;28;20269;-51
2023/02/12 02:22:10;;;;;;;30.27;15.97;;;;;;;17.46;74.13;103687.88;5092084;28;20270;-49
2023/02/12 02:24:52;;;;;;;26.40;14.17;;;;;;;17.31;74.83;103679.63;5095391;28;20261;-53
2023/02/12 02:27:52;;;;;;;33.40;15.40;;;;;;;17.43;73.99;103675.56;5093277;28;20291;-49
2023/02/12 02:30:46;;;;;;;31.73;14.83;;;;;;;17.17;74.44;103676.59;5096042;28;20287;-49
2023/02/12 02:33:31;;;;;;;26.87;14.43;;;;;;;17.18;74.39;103685.56;5098739;28;20299;-52
2023/02/12 02:36:26;;;;;;;29.30;14.82;;;;;;;17.30;74.39;103673.41;5097491;28;20302;-53
2023/02/12 02:39:05;;;;;;;32.10;16.03;;;;;;;17.69;73.21;103673.63;5099512;28;20059;-48
2023/02/12 02:41:56;;;;;;;30.03;16.37;;;;;;;17.54;72.84;103676.22;5094054;28;20269;-50
2023/02/12 02:44:34;;;;;;;29.30;15.55;;;;;;;17.74;72.43;103671.22;5091810;28;20284;-54
2023/02/12 02:47:04;;;;;;;28.60;15.33;;;;;;;17.77;72.19;103676.31;5098336;28;20025;-53
2023/02/12 02:49:44;;;;;;;33.70;16.27;;;;;;;17.41;72.65;103680.28;5097038;28;20269;-49
2023/02/12 02:52:18;;;;;;;26.63;14.57;;;;;;;17.59;72.28;103680.09;5096739;28;20333;-54
2023/02/12 02:54:49;;;;;;;29.23;14.80;;;;;;;17.72;71.77;103675.97;5097450;28;20361;-51
2023/02/12 02:57:29;;;;;;;30.73;15.47;;;;;;;17.29;72.52;103678.97;5096614;28;20542;-49
2023/02/12 03:00:02;;;;;;;29.07;14.90;;;;;;;16.71;74.39;103668.97;5098298;28;20277;-50
2023/02/12 03:02:32;;;;;;;28.60;15.33;;;;;;;17.02;73.84;103676.44;5079056;28;20280;-51
2023/02/12 03:05:03;;;;;;;34.97;16.50;;;;;;;17.33;73.19;103673.06;5096619;28;20336;-50
2023/02/12 03:07:36;;;;;;;25.63;15.43;;;;;;;17.54;72.45;103663.53;5094750;28;20286;-53
2023/02/12 03:10:10;;;;;;;28.07;15.73;;;;;;;17.14;73.04;103666.13;5081460;28;20269;-51
2023/02/12 03:12:42;;;;;;;35.00;16.13;;;;;;;17.13;73.32;103663.63;5104405;28;20298;-51
2023/02/12 03:15:14;;;;;;;28.07;16.17;;;;;;;16.69;74.66;103668.31;5098356;28;20273;-49
2023/02/12 03:17:46;;;;;;;28.87;16.10;;;;;;;17.39;72.32;103667.97;5106334;28;20284;-51
2023/02/12 03:20:32;;;;;;;34.85;15.73;;;;;;;17.42;71.63;103662.22;5079686;28;20288;-50
2023/02/12 03:23:05;;;;;;;31.97;15.33;;;;;;;17.72;70.81;103657.03;5098329;28;20039;-53
2023/02/12 03:25:48;;;;;;;27.40;14.30;;;;;;;17.65;70.87;103656.06;5101164;28;20272;-51
2023/02/12 03:28:28;;;;;;;26.43;14.60;;;;;;;17.32;71.37;103659.69;5098180;28;20299;-51
2023/02/12 03:31:19;;;;;;;27.37;14.83;;;;;;;17.58;70.63;103662.16;5102103;28;20299;-49
2023/02/12 03:34:09;;;;;;;25.87;13.47;;;;;;;17.49;71.15;103660.50;5095398;28;20326;-49
2023/02/12 03:36:45;;;;;;;28.60;14.50;;;;;;;17.46;70.89;103659.00;5102189;28;20308;-50
2023/02/12 03:39:32;;;;;;;26.40;14.87;;;;;;;17.08;72.71;103656.00;5098557;28;20277;-47
2023/02/12 03:42:05;;;;;;;31.70;15.60;;;;;;;16.89;73.35;103662.56;5096568;28;20257;-49
2023/02/12 03:44:57;;;;;;;28.07;14.90;;;;;;;17.22;72.29;103662.56;5098973;28;20096;-47
2023/02/12 03:47:38;;;;;;;29.77;15.47;;;;;;;17.21;72.59;103666.28;5091219;28;20281;-53
2023/02/12 03:50:24;;;;;;;26.03;15.13;;;;;;;17.01;73.44;103672.06;5101587;28;20633;-53
2023/02/12 03:52:50;;;;;;;26.75;14.10;;;;;;;17.03;73.35;103674.59;5096218;28;20265;-51
2023/02/12 03:55:16;;;;;;;33.03;15.07;;;;;;;17.29;72.87;103668.97;5100571;28;20056;-53
2023/02/12 03:57:49;;;;;;;29.05;15.10;;;;;;;17.33;72.81;103667.66;5106224;28;20316;-53
2023/02/12 04:00:19;;;;;;;26.93;14.00;;;;;;;17.32;72.79;103676.78;5098572;28;20033;-48
2023/02/12 04:02:49;;;;;;;28.70;13.97;;;;;;;17.43;72.64;103670.16;5082302;28;20291;-52
2023/02/12 04:05:17;;;;;;;31.10;15.35;;;;;;;17.19;73.19;103676.44;5097614;28;20269;-52
2023/02/12 04:07:43;;;;;;;23.50;14.13;;;;;;;17.21;72.91;103682.53;5102230;28;20051;-54
2023/02/12 04:10:09;;;;;;;24.97;14.23;;;;;;;17.10;73.22;103685.59;5103369;28;20273;-52
2023/02/12 04:12:45;;;;;;;28.70;15.23;;;;;;;17.18;73.15;103689.13;5102781;28;20059;-53
2023/02/12 04:15:56;;;;;;;31.07;15.33;;;;;;;17.43;72.38;103690.94;5098193;28;20036;-53
2023/02/12 04:18:37;;;;;;;28.57;12.90;;;;;;;17.38;72.35;103687.91;5097837;28;20276;-51
2023/02/12 04:21:17;;;;;;;27.47;12.57;;;;;;;16.83;73.27;103691.13;5099237;28;20261;-52
2023/02/12 04:23:57;;;;;;;26.37;13.20;;;;;;;17.06;73.24;103685.91;5099368;28;20261;-51
2023/02/12 04:26:41;;;;;;;24.97;12.87;;;;;;;16.83;73.24;103691.13;5100125;28;20280;-52
2023/02/12 04:29:25;;;;;;;22.43;12.30;;;;;;;17.06;72.43;103694.00;5099568;28;20265;-49
2023/02/12 04:32:03;;;;;;;23.07;12.53;;;;;;;16.62;73.97;103694.31;5096271;28;20258;-51
2023/02/12 04:34:38;;;;;;;22.67;11.60;;;;;;;16.89;73.52;103701.25;5094744;28;20273;-49
2023/02/12 04:37:03;;;;;;;21.40;11.43;;;;;;;16.53;74.56;103695.28;5099651;28;20594;-50
2023/02/12 04:39:34;;;;;;;23.30;13.05;;;;;;;16.67;73.65;103693.78;5103528;28;20258;-53
2023/02/12 04:42:00;;;;;;;23.77;12.30;;;;;;;16.37;75.00;103691.53;5096620;28;20055;-53
2023/02/12 04:44:32;;;;;;;20.55;11.45;;;;;;;16.50;74.78;103699.19;5099258;28;20028;-50
2023/02/12 04:46:58;;;;;;;21.75;11.50;;;;;;;16.98;73.50;103698.56;5095821;28;20571;-51
2023/02/12 04:49:24;;;;;;;21.65;11.23;;;;;;;16.69;73.25;103700.72;5104654;28;20051;-54
2023/02/12 04:51:50;;;;;;;20.00;11.75;;;;;;;16.73;73.48;103699.38;5098672;28;20047;-55
2023/02/12 04:54:17;;;;;;;21.77;12.05;;;;;;;16.78;73.15;103701.59;5102667;28;20033;-55
2023/02/12 04:56:44;;;;;;;24.80;11.93;;;;;;;17.28;71.61;103697.03;5097024;28;20032;-52
2023/02/12 04:59:10;;;;;;;23.57;11.87;;;;;;;16.86;72.49;103700.75;5096989;28;20285;-54
2023/02/12 05:01:37;;;;;;;22.48;11.27;;;;;;;16.63;72.64;103702.22;5096278;28;20329;-52
2023/02/12 05:04:03;;;;;;;;;;;;;;;17.19;71.72;103708.88;5102907;28;20061;-52
2023/02/12 05:06:30;;;;;;;22.92;11.85;;;;;;;17.41;70.86;103701.09;5099552;28;19944;-48
2023/02/12 05:08:56;;;;;;;21.40;11.50;;;;;;;17.28;71.22;103709.72;5098750;28;20037;-51
2023/02/12 05:11:22;;;;;;;22.58;11.85;;;;;;;17.21;70.95;103712.25;5095960;28;20044;-52
2023/02/12 05:13:52;;;;;;;25.70;11.48;;;;;;;17.60;70.50;103708.84;5100396;28;20048;-54
2023/02/12 05:16:19;;;;;;;22.17;11.77;;;;;;;17.81;69.50;103706.56;5096165;28;20029;-48
2023/02/12 05:18:44;;;;;;;23.67;11.97;;;;;;;17.80;69.37;103711.16;5098924;28;20282;-54
2023/02/12 05:21:10;;;;;;;21.63;12.27;;;;;;;17.41;70.50;103714.63;5098979;28;20272;-50
2023/02/12 05:23:37;;;;;;;22.42;13.00;;;;;;;17.58;69.75;103710.88;5081157;28;20059;-53
2023/02/12 05:26:08;;;;;;;21.70;12.13;;;;;;;17.82;69.15;103714.53;5101281;28;20028;-53
2023/02/12 05:28:33;;;;;;;25.23;12.63;;;;;;;17.73;69.10;103719.13;5099917;28;20265;-49
2023/02/12 05:31:00;;;;;;;27.00;12.90;;;;;;;17.91;68.80;103718.06;5102536;28;20326;-48
2023/02/12 05:33:27;;;;;;;26.47;12.93;;;;;;;17.81;68.74;103715.56;5104595;28;20078;-50
2023/02/12 05:35:52;;;;;;;22.88;12.43;;;;;;;17.48;69.42;103707.50;5096620;28;20268;-52
2023/02/12 05:38:17;;;;;;;23.43;12.33;;;;;;;17.51;69.86;103712.56;5097895;28;20032;-52
2023/02/12 05:40:43;;;;;;;24.90;13.67;;;;;;;17.12;70.14;103713.28;5100600;28;20039;-54
2023/02/12 05:43:09;;;;;;;28.37;13.10;;;;;;;17.18;70.12;103720.72;5099022;28;20265;-54
2023/02/12 05:45:35;;;;;;;20.02;11.52;;;;;;;17.57;69.57;103720.00;5099434;28;20260;-54
2023/02/12 05:48:01;;;;;;;24.20;12.83;;;;;;;17.62;69.31;103720.34;5095418;28;20036;-48
2023/02/12 05:50:27;;;;;;;26.37;13.43;;;;;;;17.69;68.80;103722.34;5101426;28;20028;-52
2023/02/12 05:53:00;;;;;;;23.90;12.90;;;;;;;17.85;68.95;103714.19;5096143;28;20269;-53
2023/02/12 05:55:25;;;;;;;27.73;13.43;;;;;;;17.72;69.07;103724.69;5102771;28;20277;-51
2023/02/12 05:57:51;;;;;;;26.90;13.48;;;;;;;17.93;68.57;103718.72;5099442;28;20310;-51
2023/02/12 06:00:17;;;;;;;26.07;14.13;;;;;;;17.96;68.57;103717.50;5103999;28;20040;-53
2023/02/12 06:02:43;;;;;;;26.83;14.98;;;;;;;17.70;68.97;103718.63;5099751;28;20311;-53
2023/02/12 06:05:09;;;;;;;27.77;14.63;;;;;;;17.86;68.58;103715.88;5097547;28;20036;-54
2023/02/12 06:07:34;;;;;;;27.50;14.67;;;;;;;17.87;68.56;103712.13;5095774;28;20112;-49
2023/02/12 06:10:00;;;;;;;27.90;12.93;;;;;;;17.63;68.93;103718.47;5099311;28;20055;-53
2023/02/12 06:12:25;;;;;;;23.42;13.25;;;;;;;17.87;68.39;103719.41;5097547;28;20063;-52
2023/02/12 06:14:51;;;;;;;26.63;14.40;;;;;;;17.86;68.49;103721.28;5098096;28;20048;-54
2023/02/12 06:17:16;;;;;;;26.73;14.20;;;;;;;17.72;68.58;103712.03;5098717;28;20028;-53
2023/02/12 06:19:42;;;;;;;33.93;15.20;;;;;;;17.65;68.42;103721.00;5100717;28;20044;-50
2023/02/12 06:22:07;;;;;;;36.50;14.77;;;;;;;17.79;68.74;103728.41;5100173;28;20303;-52
2023/02/12 06:24:33;;;;;;;30.03;14.63;;;;;;;17.69;69.02;103720.50;5099528;28;20311;-53
2023/02/12 06:26:58;;;;;;;26.05;14.48;;;;;;;17.70;68.65;103727.59;5096285;28;20024;-50
2023/02/12 06:29:24;;;;;;;28.70;15.88;;;;;;;17.76;68.54;103726.03;5102817;28;20037;-49
2023/02/12 06:31:49;;;;;;;27.33;15.73;;;;;;;17.85;68.40;103730.44;5095843;28;20028;-51
2023/02/12 06:34:18;;;;;;;31.57;15.47;;;;;;;17.92;68.50;103728.69;5104728;28;20296;-54
2023/02/12 06:36:45;;;;;;;30.17;14.37;;;;;;;17.97;68.31;103735.44;5096085;28;20075;-53
2023/02/12 06:39:12;;;;;;;27.53;15.10;;;;;;;17.94;68.69;103724.97;5099580;28;20265;-52
2023/02/12 06:41:38;;;;;;;31.77;15.00;;;;;;;17.94;68.56;103728.53;5100812;28;20261;-53
2023/02/12 06:44:04;;;;;;;28.47;15.43;;;;;;;17.90;68.79;103730.75;5098348;28;20332;-51
2023/02/12 06:46:30;;;;;;;28.15;14.70;;;;;;;17.86;69.11;103729.41;5098441;28;20033;-51
2023/02/12 06:48:59;;;;;;;27.17;13.88;;;;;;;17.94;68.92;103736.66;5099178;28;20066;-48
2023/02/12 06:51:26;;;;;;;26.87;15.10;;;;;;;17.74;69.35;103734.34;5116897;28;20032;-50
2023/02/12 06:53:53;;;;;;;26.97;14.93;;;;;;;17.83;69.09;103740.59;5100199;28;20349;-52
2023/02/12 06:56:21;;;;;;;29.73;14.70;;;;;;;17.76;69.67;103744.97;5097086;28;20265;-52
2023/02/12 06:58:52;;;;;;;27.20;13.43;;;;;;;17.81;69.66;103741.75;5094710;28;20739;-54
2023/02/12 07:01:21;;;;;;;28.87;14.50;;;;;;;17.77;69.45;103736.69;5102869;28;20291;-52
2023/02/12 07:03:57;;;;;;;31.53;16.13;;;;;;;17.84;69.40;103744.97;5104151;28;20271;-48
2023/02/12 07:06:24;;;;;;;33.75;16.73;;;;;;;17.97;69.38;103748.97;5104303;28;20280;-49
2023/02/12 07:08:50;;;;;;;30.80;16.20;;;;;;;17.75;69.56;103757.69;5103818;28;20020;-53
2023/02/12 07:11:17;;;;;;;32.08;15.85;;;;;;;17.71;70.08;103755.47;5100416;28;20273;-52
2023/02/12 07:13:44;;;;;;;31.73;15.40;;;;;;;17.28;71.02;103761.94;5100232;28;20051;-51
2023/02/12 07:16:12;;;;;;;36.00;16.20;;;;;;;17.27;70.96;103759.44;5102626;28;20346;-51
2023/02/12 07:18:38;;;;;;;30.03;15.00;;;;;;;17.22;71.88;103759.94;5097267;28;20089;-52
2023/02/12 07:21:04;;;;;;;31.90;15.43;;;;;;;16.98;72.80;103760.75;5099606;28;20269;-53
2023/02/12 07:23:31;;;;;;;31.30;16.47;;;;;;;16.90;73.12;103757.00;5098699;28;20033;-50
2023/02/12 07:25:59;;;;;;;41.38;19.33;;;;;;;17.16;73.44;103763.31;5098755;28;20261;-51
2023/02/12 07:28:26;;;;;;;36.93;18.00;;;;;;;17.22;72.21;103764.50;5098270;28;20034;-52
2023/02/12 07:30:51;;;;;;;34.67;16.50;;;;;;;16.61;74.49;103766.41;5097342;28;20333;-49
2023/02/12 07:33:18;;;;;;;33.55;17.45;;;;;;;16.73;73.88;103768.81;5099088;28;20108;-50
2023/02/12 07:35:44;;;;;;;36.97;18.17;;;;;;;16.43;74.84;103769.22;5102437;28;20032;-52
2023/02/12 07:38:10;;;;;;;35.83;17.37;;;;;;;16.67;74.26;103774.84;5099921;28;20115;-49
2023/02/12 07:40:35;;;;;;;34.20;17.08;;;;;;;16.37;75.03;103772.53;5100369;28;20396;-54
2023/02/12 07:43:01;;;;;;;37.30;18.05;;;;;;;16.72;74.37;103770.66;5105376;28;20043;-50
2023/02/12 07:45:26;;;;;;;36.17;16.90;;;;;;;16.54;74.88;103773.47;5100964;28;20091;-52
2023/02/12 07:47:52;;;;;;;33.92;16.98;;;;;;;16.56;75.64;103776.84;5098617;28;20028;-55
2023/02/12 07:50:17;;;;;;;30.73;17.13;;;;;;;16.81;75.42;103776.91;5105743;28;20040;-55
2023/02/12 07:52:43;;;;;;;33.90;17.23;;;;;;;16.72;74.72;103784.16;5100395;28;20270;-52
2023/02/12 07:55:09;;;;;;;36.80;18.70;;;;;;;17.09;73.20;103778.53;5102000;28;20024;-55
2023/02/12 07:57:35;;;;;;;38.33;17.70;;;;;;;16.90;73.51;103777.78;5097488;28;20281;-53
2023/02/12 08:00:01;;;;;;;39.10;18.38;;;;;;;17.40;72.33;103777.84;5103104;28;20047;-54
2023/02/12 08:02:26;;;;;;;37.08;19.48;;;;;;;17.27;72.64;103781.91;5109362;28;20048;-51
2023/02/12 08:04:56;;;;;;;34.75;18.77;;;;;;;17.31;72.25;103791.38;5101474;28;20032;-51
2023/02/12 08:07:22;;;;;;;44.50;19.30;;;;;;;17.26;72.17;103782.91;5100081;28;20029;-54
2023/02/12 08:09:47;;;;;;;36.13;17.23;;;;;;;17.22;72.07;103789.69;5100825;28;20296;-50
2023/02/12 08:12:12;;;;;;;37.07;17.97;;;;;;;17.05;71.95;103794.22;5109599;28;20262;-52
2023/02/12 08:14:38;;;;;;;37.60;18.77;;;;;;;17.36;71.38;103790.03;5088114;28;20052;-55
2023/02/12 08:17:03;;;;;;;35.83;18.53;;;;;;;17.58;70.83;103794.75;5100378;28;20033;-54
2023/02/12 08:19:29;;;;;;;36.70;19.58;;;;;;;17.44;71.55;103804.41;5088567;28;20036;-55
2023/02/12 08:21:55;;;;;;;35.60;19.07;;;;;;;16.70;73.17;103804.25;5099925;28;20033;-50
2023/02/12 08:24:22;;;;;;;38.83;19.65;;;;;;;17.25;71.93;103800.16;5106587;28;20089;-50
2023/02/12 08:26:50;;;;;;;37.57;19.17;;;;;;;17.19;72.20;103804.41;5100074;28;20036;-50
2023/02/12 08:29:17;;;;;;;;;;;;;;;16.97;72.53;103803.13;5101184;28;20287;-51
2023/02/12 08:31:46;;;;;;;39.47;18.00;;;;;;;17.07;72.94;103805.72;5103584;28;19919;-49
2023/02/12 08:34:18;;;;;;;35.07;18.37;;;;;;;17.11;72.76;103814.34;5098532;28;20053;-48
2023/02/12 08:36:44;;;;;;;33.60;18.10;;;;;;;17.32;71.65;103814.72;5103005;28;20273;-54
2023/02/12 08:39:10;;;;;;;33.83;18.25;;;;;;;17.58;70.52;103820.94;5103220;28;20275;-50
2023/02/12 08:41:36;;;;;;;;;;;;;;;17.39;70.47;103825.69;5103884;28;20036;-54
2023/02/12 08:44:03;;;;;;;35.73;18.00;;;;;;;17.61;70.27;103824.19;5098129;28;19952;-51
2023/02/12 08:46:32;;;;;;;39.20;18.30;;;;;;;17.62;69.72;103823.16;5086080;28;20091;-48
2023/02/12 08:49:00;;;;;;;36.13;17.47;;;;;;;17.20;71.44;103826.84;5098497;28;20322;-50
2023/02/12 08:51:30;;;;;;;37.40;19.03;;;;;;;17.20;72.25;103827.72;5079664;28;20390;-51
2023/02/12 08:53:58;;;;;;;37.10;18.20;;;;;;;17.25;71.39;103829.06;5103403;28;20269;-52
2023/02/12 08:56:25;;;;;;;31.57;18.30;;;;;;;17.49;70.97;103828.22;5098359;28;20268;-50
2023/02/12 08:58:52;;;;;;;38.93;18.17;;;;;;;17.63;70.73;103827.56;5080129;28;20346;-52
2023/02/12 09:01:20;;;;;;;35.13;18.17;;;;;;;17.47;70.56;103836.53;5103228;28;20284;-52
2023/02/12 09:03:47;;;;;;;37.23;17.87;;;;;;;17.59;70.00;103836.16;5099490;28;20047;-50
2023/02/12 09:06:13;;;;;;;36.15;18.33;;;;;;;17.79;69.96;103839.41;5099324;28;20375;-51
2023/02/12 09:08:39;;;;;;;32.87;17.33;;;;;;;17.94;69.66;103838.69;5101145;28;20074;-52
2023/02/12 09:11:07;;;;;;;34.70;17.65;;;;;;;18.02;69.08;103841.44;5101359;28;20272;-50
2023/02/12 09:13:33;;;;;;;34.20;17.67;;;;;;;17.97;69.52;103836.47;5101140;28;20032;-50
2023/02/12 09:16:01;;;;;;;33.75;17.33;;;;;;;18.24;70.04;103831.72;5095863;28;20284;-53
2023/02/12 09:18:28;;;;;;;31.97;16.63;;;;;;;18.03;69.50;103838.53;5098819;28;20056;-55
2023/02/12 09:20:53;;;;;;;37.38;19.52;;;;;;;18.09;70.00;103833.44;5098537;28;20298;-50
2023/02/12 09:23:19;;;;;;;34.65;18.42;;;;;;;18.26;69.77;103831.53;5077981;28;20103;-51
2023/02/12 09:25:46;;;;;;;35.45;18.00;;;;;;;17.78;70.43;103843.13;5098701;28;20031;-54
2023/02/12 09:28:13;;;;;;;33.23;18.07;;;;;;;17.99;70.33;103841.72;5099322;28;20116;-54
2023/02/12 09:30:39;;;;;;;35.27;17.57;;;;;;;18.02;70.38;103841.44;5096007;28;20269;-51
2023/02/12 09:33:06;;;;;;;33.88;17.38;;;;;;;18.20;69.34;103839.31;5099464;28;20281;-54
2023/02/12 09:35:36;;;;;;;38.27;17.93;;;;;;;18.20;68.94;103839.31;5078300;28;20100;-57
2023/02/12 09:38:03;;;;;;;28.63;15.50;;;;;;;18.30;68.40;103835.59;5100833;28;20307;-52
2023/02/12 09:40:49;;;;;;;33.07;17.23;;;;;;;17.57;69.44;103835.50;5099753;28;20322;-52
2023/02/12 09:43:33;;;;;;;36.77;17.33;;;;;;;17.80;69.45;103843.78;5102457;28;20264;-53
2023/02/12 09:46:14;;;;;;;32.33;16.57;;;;;;;17.80;69.39;103848.34;5097141;28;20272;-56
2023/02/12 09:49:10;;;;;;;30.93;17.17;;;;;;;18.08;68.51;103848.84;5101843;28;20288;-50
2023/02/12 09:51:38;;;;;;;31.03;17.27;;;;;;;18.07;68.81;103839.03;5096253;28;20281;-52
2023/02/12 09:54:12;;;;;;;33.80;17.90;;;;;;;17.86;68.99;103845.81;5100455;28;20284;-50
2023/02/12 09:56:41;;;;;;;33.30;16.87;;;;;;;17.59;69.02;103844.28;5094280;28;20281;-52
2023/02/12 09:59:08;;;;;;;32.33;16.27;;;;;;;17.71;68.30;103842.09;5083082;28;20273;-52
2023/02/12 10:01:34;;;;;;;31.58;16.35;;;;;;;17.68;67.96;103847.84;5098538;28;20275;-51
2023/02/12 10:04:03;;;;;;;32.30;16.10;;;;;;;17.45;68.54;103853.94;5095508;28;20060;-54
2023/02/12 10:06:45;;;;;;;30.93;15.67;;;;;;;17.71;67.92;103848.38;5097777;28;20036;-53
2023/02/12 10:09:28;;;;;;;33.30;15.47;;;;;;;17.79;68.02;103858.34;5097460;28;20269;-50
2023/02/12 10:11:59;;;;;;;32.50;16.47;;;;;;;17.69;68.60;103853.09;5097523;28;20266;-51
2023/02/12 10:14:58;;;;;;;34.17;16.93;;;;;;;17.93;68.19;103854.09;5091358;28;20261;-51
2023/02/12 10:17:44;;;;;;;34.70;17.37;;;;;;;17.79;68.39;103852.94;5087307;28;20340;-53
2023/02/12 10:20:47;;;;;;;31.07;15.20;;;;;;;17.76;68.63;103845.97;5094147;28;20261;-55
2023/02/12 10:23:15;;;;;;;33.50;16.27;;;;;;;17.95;68.19;103846.66;5091572;28;20321;-55
2023/02/12 10:25:50;;;;;;;31.53;15.83;;;;;;;18.25;67.60;103837.97;5092770;28;20350;-49
2023/02/12 10:28:23;;;;;;;33.63;16.30;;;;;;;18.32;67.40;103833.56;5096044;28;20261;-52
2023/02/12 10:30:59;;;;;;;26.57;15.00;;;;;;;18.25;66.88;103846.94;5095547;28;20265;-51
2023/02/12 10:33:39;;;;;;;28.43;15.97;;;;;;;18.19;67.16;103843.06;5093668;28;20267;-51
2023/02/12 10:36:21;;;;;;;38.17;14.87;;;;;;;18.01;67.13;103850.53;5074462;28;20326;-49
2023/02/12 10:38:54;;;;;;;26.00;14.73;;;;;;;17.55;68.31;103846.50;5097302;28;20281;-48
2023/02/12 10:41:23;;;;;;;27.83;14.67;;;;;;;17.83;67.96;103842.59;5093750;28;20288;-52
2023/02/12 10:43:49;;;;;;;34.87;16.03;;;;;;;17.68;67.55;103846.00;5100777;28;20272;-53
2023/02/12 10:46:15;;;;;;;32.33;15.60;;;;;;;17.74;68.75;103844.44;5101355;28;20273;-53
2023/02/12 10:48:45;;;;;;;31.17;15.55;;;;;;;17.55;68.86;103846.50;5094317;28;20020;-53
2023/02/12 10:51:37;;;;;;;27.87;14.87;;;;;;;17.83;68.27;103845.28;5096443;28;20066;-54
2023/02/12 10:54:41;;;;;;;33.50;16.23;;;;;;;17.94;68.16;103844.09;5094652;28;20273;-52
2023/02/12 10:57:10;;;;;;;31.53;15.60;;;;;;;17.54;68.78;103835.84;5099661;28;20281;-52
2023/02/12 10:59:35;;;;;;;31.87;16.10;;;;;;;17.36;68.86;103842.25;5098033;28;20284;-49
2023/02/12 11:02:01;;;;;;;29.07;15.63;;;;;;;17.18;69.25;103839.72;5093976;28;20269;-49
2023/02/12 11:04:31;;;;;;;31.05;14.95;;;;;;;17.42;69.36;103846.16;5096883;28;20104;-53
2023/02/12 11:07:00;;;;;;;29.00;14.70;;;;;;;17.49;69.05;103847.16;5095495;28;20048;-53
2023/02/12 11:09:39;;;;;;;30.30;15.57;;;;;;;17.53;68.83;103848.53;5095153;28;20266;-48
2023/02/12 11:12:16;;;;;;;26.50;14.83;;;;;;;17.76;68.68;103853.25;5094311;28;20273;-51
2023/02/12 11:14:52;;;;;;;31.58;14.55;;;;;;;17.81;68.42;103847.31;5095336;28;20269;-52
2023/02/12 11:17:40;;;;;;;28.55;14.75;;;;;;;17.92;68.06;103847.81;5097225;28;20044;-52
2023/02/12 11:20:17;;;;;;;27.73;14.70;;;;;;;18.02;67.76;103842.25;5094257;28;20052;-48
2023/02/12 11:22:57;;;;;;;25.90;13.53;;;;;;;17.97;67.82;103843.75;5094604;28;20058;-52
2023/02/12 11:25:28;;;;;;;29.60;15.33;;;;;;;18.43;66.78;103844.00;5091280;28;20295;-50
2023/02/12 11:28:12;;;;;;;25.87;13.57;;;;;;;18.40;66.09;103838.94;5096291;28;20265;-52